sensor_id;sensor_type;location;lat;lon;timestamp;pressure;altitude;pressure_sealevel;temperature;humidity
6506;BME280;3286;49.858;8.768;2023-05-02T00:00:58;99269.00;;;15.74;52.89
6506;BME280;3286;49.858;8.768;2023-05-02T00:03:30;99262.06;;;15.49;52.34
6506;BME280;3286;49.858;8.768;2023-05-02T00:05:58;99264.09;;;15.62;52.89
6506;BME280;3286;49.858;8.768;2023-05-02T00:08:25;99258.97;;;15.61;53.41
6506;BME280;3286;49.858;8.768;2023-05-02T00:10:51;99260.63;;;15.62;53.37
6506;BME280;3286;49.858;8.768;2023-05-02T00:13:18;99246.72;;;15.37;53.10
6506;BME280;3286;49.858;8.768;2023-05-02T00:15:45;99259.38;;;15.49;52.81
6506;BME280;3286;49.858;8.768;2023-05-02T00:18:11;99257.91;;;15.32;53.05
6506;BME280;3286;49.858;8.768;2023-05-02T00:20:40;99260.03;;;15.37;52.91
6506;BME280;3286;49.858;8.768;2023-05-02T00:23:06;99254.22;;;15.33;52.35
6506;BME280;3286;49.858;8.768;2023-05-02T00:25:33;99253.78;;;15.44;52.76
6506;BME280;3286;49.858;8.768;2023-05-02T00:28:00;99248.53;;;15.36;52.10
6506;BME280;3286;49.858;8.768;2023-05-02T00:30:26;99260.72;;;14.92;52.98
6506;BME280;3286;49.858;8.768;2023-05-02T00:32:53;99256.41;;;14.91;53.97
6506;BME280;3286;49.858;8.768;2023-05-02T00:35:20;99254.50;;;14.76;54.80
6506;BME280;3286;49.858;8.768;2023-05-02T00:37:48;99266.81;;;14.38;54.04
6506;BME280;3286;49.858;8.768;2023-05-02T00:40:14;99266.19;;;14.90;53.11
6506;BME280;3286;49.858;8.768;2023-05-02T00:42:41;99263.13;;;14.78;52.13
6506;BME280;3286;49.858;8.768;2023-05-02T00:45:08;99277.31;;;14.94;51.98
6506;BME280;3286;49.858;8.768;2023-05-02T00:47:36;99274.28;;;14.66;52.76
6506;BME280;3286;49.858;8.768;2023-05-02T00:50:04;99264.91;;;14.86;52.14
6506;BME280;3286;49.858;8.768;2023-05-02T00:52:31;99273.94;;;15.00;52.45
6506;BME280;3286;49.858;8.768;2023-05-02T00:55:00;99278.69;;;14.90;53.52
6506;BME280;3286;49.858;8.768;2023-05-02T00:57:27;99277.06;;;15.04;53.07
6506;BME280;3286;49.858;8.768;2023-05-02T00:59:54;99275.13;;;14.74;54.03
6506;BME280;3286;49.858;8.768;2023-05-02T01:02:31;99277.34;;;14.86;54.38
6506;BME280;3286;49.858;8.768;2023-05-02T01:05:09;99273.94;;;14.77;54.05
6506;BME280;3286;49.858;8.768;2023-05-02T01:07:53;99275.25;;;14.49;53.70
6506;BME280;3286;49.858;8.768;2023-05-02T01:10:31;99284.03;;;14.50;55.03
6506;BME280;3286;49.858;8.768;2023-05-02T01:13:05;99282.50;;;14.56;53.61
6506;BME280;3286;49.858;8.768;2023-05-02T01:15:34;99287.34;;;14.52;54.12
6506;BME280;3286;49.858;8.768;2023-05-02T01:18:04;99295.22;;;14.37;54.43
6506;BME280;3286;49.858;8.768;2023-05-02T01:20:35;99292.91;;;14.34;54.65
6506;BME280;3286;49.858;8.768;2023-05-02T01:23:10;99296.97;;;14.53;53.68
6506;BME280;3286;49.858;8.768;2023-05-02T01:25:51;99304.75;;;14.15;55.01
6506;BME280;3286;49.858;8.768;2023-05-02T01:28:30;99303.38;;;14.27;54.57
6506;BME280;3286;49.858;8.768;2023-05-02T01:31:02;99308.03;;;14.25;54.34
6506;BME280;3286;49.858;8.768;2023-05-02T01:33:30;99305.56;;;14.24;53.75
6506;BME280;3286;49.858;8.768;2023-05-02T01:35:59;99310.69;;;14.65;53.24
6506;BME280;3286;49.858;8.768;2023-05-02T01:38:28;99312.72;;;14.15;54.08
6506;BME280;3286;49.858;8.768;2023-05-02T01:40:56;99310.47;;;13.95;54.66
6506;BME280;3286;49.858;8.768;2023-05-02T01:43:29;99317.88;;;14.16;53.88
6506;BME280;3286;49.858;8.768;2023-05-02T01:45:58;99324.53;;;14.12;54.08
6506;BME280;3286;49.858;8.768;2023-05-02T01:48:27;99313.34;;;14.25;53.42
6506;BME280;3286;49.858;8.768;2023-05-02T01:50:56;99319.06;;;14.05;52.78
6506;BME280;3286;49.858;8.768;2023-05-02T01:53:24;99323.59;;;13.80;53.27
6506;BME280;3286;49.858;8.768;2023-05-02T01:55:51;99324.91;;;13.93;53.66
6506;BME280;3286;49.858;8.768;2023-05-02T01:58:20;99344.38;;;13.52;53.96
6506;BME280;3286;49.858;8.768;2023-05-02T02:00:47;99337.69;;;13.97;52.61
6506;BME280;3286;49.858;8.768;2023-05-02T02:03:16;99336.50;;;14.00;52.74
6506;BME280;3286;49.858;8.768;2023-05-02T02:05:46;99338.94;;;14.18;52.37
6506;BME280;3286;49.858;8.768;2023-05-02T02:08:14;99348.06;;;14.24;51.85
6506;BME280;3286;49.858;8.768;2023-05-02T02:10:44;99347.25;;;14.15;52.30
6506;BME280;3286;49.858;8.768;2023-05-02T02:13:16;99357.22;;;14.13;52.71
6506;BME280;3286;49.858;8.768;2023-05-02T02:15:46;99360.28;;;13.68;53.96
6506;BME280;3286;49.858;8.768;2023-05-02T02:18:17;99355.47;;;13.80;53.16
6506;BME280;3286;49.858;8.768;2023-05-02T02:20:49;99359.78;;;13.81;53.10
6506;BME280;3286;49.858;8.768;2023-05-02T02:23:16;99361.75;;;13.87;52.72
6506;BME280;3286;49.858;8.768;2023-05-02T02:25:45;99370.91;;;13.52;53.66
6506;BME280;3286;49.858;8.768;2023-05-02T02:28:12;99378.03;;;13.51;53.78
6506;BME280;3286;49.858;8.768;2023-05-02T02:30:39;99383.00;;;13.62;53.62
6506;BME280;3286;49.858;8.768;2023-05-02T02:33:06;99382.44;;;13.17;54.70
6506;BME280;3286;49.858;8.768;2023-05-02T02:35:37;99373.63;;;13.09;54.72
6506;BME280;3286;49.858;8.768;2023-05-02T02:38:12;99377.13;;;13.17;54.75
6506;BME280;3286;49.858;8.768;2023-05-02T02:40:43;99375.38;;;13.43;54.31
6506;BME280;3286;49.858;8.768;2023-05-02T02:43:25;99371.38;;;13.64;53.38
6506;BME280;3286;49.858;8.768;2023-05-02T02:46:01;99370.38;;;13.31;54.05
6506;BME280;3286;49.858;8.768;2023-05-02T02:48:36;99371.88;;;13.42;53.87
6506;BME280;3286;49.858;8.768;2023-05-02T02:51:08;99379.28;;;13.22;54.53
6506;BME280;3286;49.858;8.768;2023-05-02T02:53:50;99387.19;;;12.97;54.80
6506;BME280;3286;49.858;8.768;2023-05-02T02:56:25;99392.50;;;13.06;54.40
6506;BME280;3286;49.858;8.768;2023-05-02T02:58:56;99394.16;;;12.98;54.71
6506;BME280;3286;49.858;8.768;2023-05-02T03:01:26;99396.28;;;12.95;55.14
6506;BME280;3286;49.858;8.768;2023-05-02T03:03:54;99393.16;;;12.99;54.82
6506;BME280;3286;49.858;8.768;2023-05-02T03:06:22;99402.31;;;12.62;55.57
6506;BME280;3286;49.858;8.768;2023-05-02T03:08:51;99404.63;;;12.65;55.38
6506;BME280;3286;49.858;8.768;2023-05-02T03:11:17;99406.81;;;12.70;55.14
6506;BME280;3286;49.858;8.768;2023-05-02T03:13:44;99401.66;;;13.19;53.98
6506;BME280;3286;49.858;8.768;2023-05-02T03:16:26;99407.06;;;12.93;55.15
6506;BME280;3286;49.858;8.768;2023-05-02T03:18:55;99411.97;;;12.80;55.00
6506;BME280;3286;49.858;8.768;2023-05-02T03:21:21;99415.13;;;12.75;55.21
6506;BME280;3286;49.858;8.768;2023-05-02T03:23:48;99416.94;;;12.83;54.90
6506;BME280;3286;49.858;8.768;2023-05-02T03:26:16;99420.06;;;12.70;55.88
6506;BME280;3286;49.858;8.768;2023-05-02T03:28:43;99422.44;;;12.46;56.28
6506;BME280;3286;49.858;8.768;2023-05-02T03:31:11;99419.50;;;12.58;56.21
6506;BME280;3286;49.858;8.768;2023-05-02T03:33:38;99419.78;;;12.46;56.38
6506;BME280;3286;49.858;8.768;2023-05-02T03:36:05;99423.22;;;12.39;56.67
6506;BME280;3286;49.858;8.768;2023-05-02T03:38:32;99420.44;;;12.83;55.35
6506;BME280;3286;49.858;8.768;2023-05-02T03:40:59;99430.88;;;12.85;55.14
6506;BME280;3286;49.858;8.768;2023-05-02T03:43:27;99428.53;;;12.73;55.21
6506;BME280;3286;49.858;8.768;2023-05-02T03:45:53;99431.00;;;12.67;55.41
6506;BME280;3286;49.858;8.768;2023-05-02T03:48:20;99435.44;;;12.66;56.01
6506;BME280;3286;49.858;8.768;2023-05-02T03:50:47;99439.41;;;12.62;56.34
6506;BME280;3286;49.858;8.768;2023-05-02T03:53:14;99440.31;;;12.79;55.81
6506;BME280;3286;49.858;8.768;2023-05-02T03:55:41;99436.28;;;13.10;55.45
6506;BME280;3286;49.858;8.768;2023-05-02T03:58:09;99434.59;;;12.92;56.31
6506;BME280;3286;49.858;8.768;2023-05-02T04:00:37;99445.63;;;12.44;57.73
6506;BME280;3286;49.858;8.768;2023-05-02T04:03:04;99453.56;;;12.79;57.04
6506;BME280;3286;49.858;8.768;2023-05-02T04:05:31;99459.97;;;13.03;56.46
6506;BME280;3286;49.858;8.768;2023-05-02T04:07:58;99466.06;;;12.95;56.59
6506;BME280;3286;49.858;8.768;2023-05-02T04:10:24;99465.13;;;13.13;56.42
6506;BME280;3286;49.858;8.768;2023-05-02T04:12:51;99470.69;;;12.58;57.42
6506;BME280;3286;49.858;8.768;2023-05-02T04:15:18;99472.88;;;12.63;58.30
6506;BME280;3286;49.858;8.768;2023-05-02T04:17:46;99470.38;;;12.96;57.15
6506;BME280;3286;49.858;8.768;2023-05-02T04:20:12;99466.91;;;13.04;56.90
6506;BME280;3286;49.858;8.768;2023-05-02T04:22:40;99477.06;;;13.09;56.27
6506;BME280;3286;49.858;8.768;2023-05-02T04:25:07;99481.97;;;12.87;56.82
6506;BME280;3286;49.858;8.768;2023-05-02T04:27:33;99482.00;;;13.03;56.45
6506;BME280;3286;49.858;8.768;2023-05-02T04:30:00;99481.63;;;13.33;55.80
6506;BME280;3286;49.858;8.768;2023-05-02T04:32:27;99491.53;;;13.23;56.09
6506;BME280;3286;49.858;8.768;2023-05-02T04:34:55;99489.16;;;13.54;55.28
6506;BME280;3286;49.858;8.768;2023-05-02T04:37:22;99492.75;;;13.37;55.66
6506;BME280;3286;49.858;8.768;2023-05-02T04:39:48;99496.97;;;13.56;55.06
6506;BME280;3286;49.858;8.768;2023-05-02T04:42:15;99503.38;;;13.37;55.66
6506;BME280;3286;49.858;8.768;2023-05-02T04:44:41;99508.06;;;13.08;56.41
6506;BME280;3286;49.858;8.768;2023-05-02T04:47:08;99512.88;;;13.47;55.22
6506;BME280;3286;49.858;8.768;2023-05-02T04:49:35;99519.34;;;13.45;55.51
6506;BME280;3286;49.858;8.768;2023-05-02T04:52:03;99519.97;;;13.39;55.68
6506;BME280;3286;49.858;8.768;2023-05-02T04:54:31;99525.63;;;13.44;55.80
6506;BME280;3286;49.858;8.768;2023-05-02T04:56:58;99534.28;;;13.46;55.43
6506;BME280;3286;49.858;8.768;2023-05-02T04:59:27;99538.91;;;12.83;57.72
6506;BME280;3286;49.858;8.768;2023-05-02T05:01:54;99534.09;;;13.13;56.97
6506;BME280;3286;49.858;8.768;2023-05-02T05:04:20;99538.69;;;13.37;56.46
6506;BME280;3286;49.858;8.768;2023-05-02T05:06:47;99537.44;;;13.50;55.82
6506;BME280;3286;49.858;8.768;2023-05-02T05:09:15;99548.78;;;13.33;56.29
6506;BME280;3286;49.858;8.768;2023-05-02T05:11:42;99556.22;;;13.65;55.32
6506;BME280;3286;49.858;8.768;2023-05-02T05:14:10;99558.75;;;13.40;56.51
6506;BME280;3286;49.858;8.768;2023-05-02T05:16:37;99565.19;;;13.29;56.77
6506;BME280;3286;49.858;8.768;2023-05-02T05:19:03;99562.59;;;13.11;57.34
6506;BME280;3286;49.858;8.768;2023-05-02T05:21:30;99573.31;;;13.70;55.88
6506;BME280;3286;49.858;8.768;2023-05-02T05:23:57;99575.53;;;13.83;55.27
6506;BME280;3286;49.858;8.768;2023-05-02T05:26:25;99579.13;;;13.31;56.44
6506;BME280;3286;49.858;8.768;2023-05-02T05:28:51;99586.06;;;13.58;55.82
6506;BME280;3286;49.858;8.768;2023-05-02T05:31:18;99595.09;;;13.13;57.15
6506;BME280;3286;49.858;8.768;2023-05-02T05:33:44;99590.16;;;13.96;56.90
6506;BME280;3286;49.858;8.768;2023-05-02T05:36:12;99593.66;;;13.45;58.25
6506;BME280;3286;49.858;8.768;2023-05-02T05:38:39;99599.66;;;14.23;55.19
6506;BME280;3286;49.858;8.768;2023-05-02T05:41:06;99598.69;;;14.41;54.54
6506;BME280;3286;49.858;8.768;2023-05-02T05:43:34;99602.94;;;14.00;55.58
6506;BME280;3286;49.858;8.768;2023-05-02T05:46:01;99607.47;;;14.08;55.29
6506;BME280;3286;49.858;8.768;2023-05-02T05:48:27;99615.25;;;14.10;55.20
6506;BME280;3286;49.858;8.768;2023-05-02T05:50:54;99616.13;;;14.35;54.48
6506;BME280;3286;49.858;8.768;2023-05-02T05:53:21;99619.63;;;14.36;54.47
6506;BME280;3286;49.858;8.768;2023-05-02T05:55:47;99625.34;;;14.06;55.74
6506;BME280;3286;49.858;8.768;2023-05-02T05:58:14;99622.75;;;14.31;54.53
6506;BME280;3286;49.858;8.768;2023-05-02T06:00:42;99625.78;;;14.53;54.20
6506;BME280;3286;49.858;8.768;2023-05-02T06:03:09;99627.09;;;14.57;53.49
6506;BME280;3286;49.858;8.768;2023-05-02T06:05:35;99631.94;;;14.70;53.88
6506;BME280;3286;49.858;8.768;2023-05-02T06:08:02;99645.38;;;14.60;53.56
6506;BME280;3286;49.858;8.768;2023-05-02T06:10:29;99639.91;;;15.11;52.13
6506;BME280;3286;49.858;8.768;2023-05-02T06:12:56;99643.41;;;14.95;52.75
6506;BME280;3286;49.858;8.768;2023-05-02T06:15:23;99642.41;;;14.80;53.57
6506;BME280;3286;49.858;8.768;2023-05-02T06:17:51;99645.22;;;15.11;53.35
6506;BME280;3286;49.858;8.768;2023-05-02T06:20:17;99648.00;;;15.18;52.53
6506;BME280;3286;49.858;8.768;2023-05-02T06:22:44;99648.72;;;15.03;52.33
6506;BME280;3286;49.858;8.768;2023-05-02T06:25:11;99652.25;;;14.71;53.07
6506;BME280;3286;49.858;8.768;2023-05-02T06:27:37;99656.66;;;15.20;52.71
6506;BME280;3286;49.858;8.768;2023-05-02T06:30:07;99658.06;;;15.64;51.07
6506;BME280;3286;49.858;8.768;2023-05-02T06:32:33;99660.16;;;15.20;51.95
6506;BME280;3286;49.858;8.768;2023-05-02T06:35:01;99661.81;;;15.21;51.99
6506;BME280;3286;49.858;8.768;2023-05-02T06:37:32;99669.00;;;14.96;52.31
6506;BME280;3286;49.858;8.768;2023-05-02T06:39:59;99667.13;;;15.30;52.42
6506;BME280;3286;49.858;8.768;2023-05-02T06:42:25;99667.00;;;15.71;51.64
6506;BME280;3286;49.858;8.768;2023-05-02T06:44:52;99665.06;;;16.28;50.69
6506;BME280;3286;49.858;8.768;2023-05-02T06:47:18;99672.44;;;15.86;50.89
6506;BME280;3286;49.858;8.768;2023-05-02T06:49:46;99670.03;;;16.63;48.85
6506;BME280;3286;49.858;8.768;2023-05-02T06:52:14;99675.59;;;15.98;49.59
6506;BME280;3286;49.858;8.768;2023-05-02T06:54:40;99676.25;;;16.55;48.80
6506;BME280;3286;49.858;8.768;2023-05-02T06:57:07;99676.34;;;17.08;47.50
6506;BME280;3286;49.858;8.768;2023-05-02T06:59:35;99674.47;;;16.94;47.09
6506;BME280;3286;49.858;8.768;2023-05-02T07:02:01;99677.31;;;16.69;46.84
6506;BME280;3286;49.858;8.768;2023-05-02T07:04:28;99681.59;;;17.17;46.46
6506;BME280;3286;49.858;8.768;2023-05-02T07:06:55;99688.34;;;16.43;47.90
6506;BME280;3286;49.858;8.768;2023-05-02T07:09:23;99676.44;;;16.92;47.38
6506;BME280;3286;49.858;8.768;2023-05-02T07:11:50;99690.28;;;15.77;48.56
6506;BME280;3286;49.858;8.768;2023-05-02T07:14:16;99696.13;;;15.81;49.28
6506;BME280;3286;49.858;8.768;2023-05-02T07:16:43;99702.94;;;15.92;48.73
6506;BME280;3286;49.858;8.768;2023-05-02T07:19:10;99698.66;;;16.46;47.76
6506;BME280;3286;49.858;8.768;2023-05-02T07:21:36;99701.38;;;16.38;47.41
6506;BME280;3286;49.858;8.768;2023-05-02T07:24:03;99705.09;;;15.88;48.07
6506;BME280;3286;49.858;8.768;2023-05-02T07:26:31;99707.00;;;15.63;48.93
6506;BME280;3286;49.858;8.768;2023-05-02T07:28:58;99706.38;;;15.36;50.63
6506;BME280;3286;49.858;8.768;2023-05-02T07:31:25;99710.34;;;16.13;48.85
6506;BME280;3286;49.858;8.768;2023-05-02T07:33:51;99706.25;;;16.26;48.23
6506;BME280;3286;49.858;8.768;2023-05-02T07:36:18;99720.03;;;15.98;48.47
6506;BME280;3286;49.858;8.768;2023-05-02T07:38:45;99715.50;;;16.06;47.83
6506;BME280;3286;49.858;8.768;2023-05-02T07:41:12;99710.38;;;16.36;47.69
6506;BME280;3286;49.858;8.768;2023-05-02T07:43:40;99711.56;;;16.57;47.42
6506;BME280;3286;49.858;8.768;2023-05-02T07:46:07;99705.94;;;16.75;47.13
6506;BME280;3286;49.858;8.768;2023-05-02T07:48:33;99708.59;;;16.52;46.11
6506;BME280;3286;49.858;8.768;2023-05-02T07:51:06;99717.06;;;15.19;48.68
6506;BME280;3286;49.858;8.768;2023-05-02T07:53:33;99718.53;;;15.39;49.71
6506;BME280;3286;49.858;8.768;2023-05-02T07:56:02;99717.47;;;16.44;47.12
6506;BME280;3286;49.858;8.768;2023-05-02T07:58:28;99718.59;;;16.27;47.25
6506;BME280;3286;49.858;8.768;2023-05-02T08:00:57;99725.56;;;15.96;48.00
6506;BME280;3286;49.858;8.768;2023-05-02T08:03:23;99729.25;;;16.27;48.77
6506;BME280;3286;49.858;8.768;2023-05-02T08:05:51;99725.91;;;16.79;46.58
6506;BME280;3286;49.858;8.768;2023-05-02T08:08:17;99729.44;;;16.17;48.09
6506;BME280;3286;49.858;8.768;2023-05-02T08:10:44;99734.06;;;15.83;48.24
6506;BME280;3286;49.858;8.768;2023-05-02T08:13:11;99739.75;;;16.20;47.67
6506;BME280;3286;49.858;8.768;2023-05-02T08:15:37;99743.78;;;16.16;49.09
6506;BME280;3286;49.858;8.768;2023-05-02T08:18:05;99747.09;;;16.18;48.63
6506;BME280;3286;49.858;8.768;2023-05-02T08:20:32;99741.38;;;16.38;47.51
6506;BME280;3286;49.858;8.768;2023-05-02T08:22:58;99740.00;;;16.42;47.73
6506;BME280;3286;49.858;8.768;2023-05-02T08:25:25;99732.75;;;16.59;47.83
6506;BME280;3286;49.858;8.768;2023-05-02T08:27:52;99735.63;;;17.19;46.39
6506;BME280;3286;49.858;8.768;2023-05-02T08:30:18;99740.25;;;16.78;45.51
6506;BME280;3286;49.858;8.768;2023-05-02T08:32:45;99741.25;;;16.54;45.89
6506;BME280;3286;49.858;8.768;2023-05-02T08:35:13;99751.47;;;16.42;46.14
6506;BME280;3286;49.858;8.768;2023-05-02T08:37:40;99744.47;;;17.58;44.16
6506;BME280;3286;49.858;8.768;2023-05-02T08:40:10;99751.91;;;17.62;44.92
6506;BME280;3286;49.858;8.768;2023-05-02T08:42:40;99752.31;;;17.21;44.31
6506;BME280;3286;49.858;8.768;2023-05-02T08:45:08;99752.00;;;17.54;44.21
6506;BME280;3286;49.858;8.768;2023-05-02T08:47:37;99756.13;;;17.42;43.28
6506;BME280;3286;49.858;8.768;2023-05-02T08:50:05;99760.75;;;17.48;44.39
6506;BME280;3286;49.858;8.768;2023-05-02T08:52:34;99757.72;;;16.34;45.88
6506;BME280;3286;49.858;8.768;2023-05-02T08:55:02;99764.13;;;16.80;45.36
6506;BME280;3286;49.858;8.768;2023-05-02T08:57:29;99768.69;;;16.40;45.45
6506;BME280;3286;49.858;8.768;2023-05-02T08:59:56;99762.84;;;16.04;46.75
6506;BME280;3286;49.858;8.768;2023-05-02T09:02:36;99772.88;;;15.69;48.56
6506;BME280;3286;49.858;8.768;2023-05-02T09:05:07;99788.06;;;14.94;49.78
6506;BME280;3286;49.858;8.768;2023-05-02T09:07:45;99798.19;;;14.99;49.23
6506;BME280;3286;49.858;8.768;2023-05-02T09:10:12;99801.19;;;15.45;48.55
6506;BME280;3286;49.858;8.768;2023-05-02T09:12:38;99789.00;;;15.84;47.14
6506;BME280;3286;49.858;8.768;2023-05-02T09:15:09;99803.81;;;16.43;46.15
6506;BME280;3286;49.858;8.768;2023-05-02T09:17:40;99801.53;;;15.67;47.78
6506;BME280;3286;49.858;8.768;2023-05-02T09:20:09;99806.19;;;15.57;46.98
6506;BME280;3286;49.858;8.768;2023-05-02T09:22:36;99802.50;;;16.39;46.54
6506;BME280;3286;49.858;8.768;2023-05-02T09:25:05;99808.09;;;16.13;46.71
6506;BME280;3286;49.858;8.768;2023-05-02T09:27:50;99805.66;;;16.43;46.39
6506;BME280;3286;49.858;8.768;2023-05-02T09:30:18;99802.97;;;17.06;44.28
6506;BME280;3286;49.858;8.768;2023-05-02T09:32:46;99802.22;;;17.59;43.43
6506;BME280;3286;49.858;8.768;2023-05-02T09:35:15;99808.28;;;16.51;45.90
6506;BME280;3286;49.858;8.768;2023-05-02T09:37:51;99817.59;;;16.55;45.54
6506;BME280;3286;49.858;8.768;2023-05-02T09:40:19;99813.47;;;16.44;46.83
6506;BME280;3286;49.858;8.768;2023-05-02T09:42:46;99814.16;;;15.98;46.50
6506;BME280;3286;49.858;8.768;2023-05-02T09:45:20;99818.25;;;16.09;47.22
6506;BME280;3286;49.858;8.768;2023-05-02T09:47:47;99822.00;;;16.40;45.51
6506;BME280;3286;49.858;8.768;2023-05-02T09:50:34;99816.63;;;16.00;47.49
6506;BME280;3286;49.858;8.768;2023-05-02T09:53:02;99824.53;;;16.64;45.03
6506;BME280;3286;49.858;8.768;2023-05-02T09:55:30;99813.94;;;17.11;43.23
6506;BME280;3286;49.858;8.768;2023-05-02T09:57:58;99817.94;;;16.04;44.58
6506;BME280;3286;49.858;8.768;2023-05-02T10:00:38;99820.63;;;15.87;43.87
6506;BME280;3286;49.858;8.768;2023-05-02T10:03:05;99822.28;;;16.53;42.68
6506;BME280;3286;49.858;8.768;2023-05-02T10:05:35;99821.00;;;17.27;42.02
6506;BME280;3286;49.858;8.768;2023-05-02T10:08:04;99823.38;;;16.67;43.17
6506;BME280;3286;49.858;8.768;2023-05-02T10:10:36;99818.28;;;16.49;43.32
6506;BME280;3286;49.858;8.768;2023-05-02T10:13:04;99823.91;;;16.94;43.99
6506;BME280;3286;49.858;8.768;2023-05-02T10:15:32;99821.97;;;16.00;45.65
6506;BME280;3286;49.858;8.768;2023-05-02T10:17:59;99828.81;;;16.42;45.22
6506;BME280;3286;49.858;8.768;2023-05-02T10:20:31;99823.94;;;16.06;46.43
6506;BME280;3286;49.858;8.768;2023-05-02T10:23:00;99820.75;;;17.37;43.61
6506;BME280;3286;49.858;8.768;2023-05-02T10:25:27;99820.25;;;17.42;41.75
6506;BME280;3286;49.858;8.768;2023-05-02T10:27:56;99817.31;;;18.05;41.65
6506;BME280;3286;49.858;8.768;2023-05-02T10:30:24;99817.56;;;18.25;42.18
6506;BME280;3286;49.858;8.768;2023-05-02T10:32:52;99810.19;;;17.44;42.34
6506;BME280;3286;49.858;8.768;2023-05-02T10:35:19;99812.59;;;17.53;42.58
6506;BME280;3286;49.858;8.768;2023-05-02T10:37:46;99807.78;;;18.47;40.13
6506;BME280;3286;49.858;8.768;2023-05-02T10:40:14;99812.09;;;17.73;41.74
6506;BME280;3286;49.858;8.768;2023-05-02T10:42:42;99812.25;;;17.57;42.25
6506;BME280;3286;49.858;8.768;2023-05-02T10:45:29;99802.88;;;17.61;43.04
6506;BME280;3286;49.858;8.768;2023-05-02T10:48:14;99814.63;;;17.51;43.26
6506;BME280;3286;49.858;8.768;2023-05-02T10:50:45;99810.59;;;17.71;43.08
6506;BME280;3286;49.858;8.768;2023-05-02T10:53:26;99811.22;;;18.26;40.85
6506;BME280;3286;49.858;8.768;2023-05-02T10:56:13;99814.91;;;17.95;41.76
6506;BME280;3286;49.858;8.768;2023-05-02T10:58:41;99813.06;;;18.26;40.33
6506;BME280;3286;49.858;8.768;2023-05-02T11:01:38;99811.81;;;18.58;39.25
6506;BME280;3286;49.858;8.768;2023-05-02T11:04:07;99804.69;;;18.14;39.94
6506;BME280;3286;49.858;8.768;2023-05-02T11:06:36;99814.47;;;17.30;42.58
6506;BME280;3286;49.858;8.768;2023-05-02T11:09:30;99812.78;;;17.52;41.32
6506;BME280;3286;49.858;8.768;2023-05-02T11:11:58;99807.03;;;16.93;41.56
6506;BME280;3286;49.858;8.768;2023-05-02T11:14:47;99806.34;;;17.23;40.34
6506;BME280;3286;49.858;8.768;2023-05-02T11:17:18;99799.97;;;18.31;39.61
6506;BME280;3286;49.858;8.768;2023-05-02T11:22:52;99803.88;;;18.87;37.74
6506;BME280;3286;49.858;8.768;2023-05-02T11:25:35;99802.66;;;19.54;36.95
6506;BME280;3286;49.858;8.768;2023-05-02T11:28:04;99800.66;;;19.35;36.62
6506;BME280;3286;49.858;8.768;2023-05-02T11:30:39;99809.69;;;18.90;37.26
6506;BME280;3286;49.858;8.768;2023-05-02T11:33:12;99810.22;;;19.44;36.55
6506;BME280;3286;49.858;8.768;2023-05-02T11:35:42;99804.06;;;19.00;37.28
6506;BME280;3286;49.858;8.768;2023-05-02T11:38:10;99796.31;;;18.90;37.31
6506;BME280;3286;49.858;8.768;2023-05-02T11:40:37;99799.19;;;17.92;37.68
6506;BME280;3286;49.858;8.768;2023-05-02T11:43:11;99797.47;;;17.99;38.17
6506;BME280;3286;49.858;8.768;2023-05-02T11:45:39;99796.44;;;18.45;37.25
6506;BME280;3286;49.858;8.768;2023-05-02T11:48:08;99795.19;;;19.00;36.70
6506;BME280;3286;49.858;8.768;2023-05-02T11:50:42;99790.59;;;19.94;35.79
6506;BME280;3286;49.858;8.768;2023-05-02T11:53:10;99782.97;;;21.28;34.87
6506;BME280;3286;49.858;8.768;2023-05-02T11:55:42;99774.03;;;21.95;32.39
6506;BME280;3286;49.858;8.768;2023-05-02T11:58:11;99780.00;;;22.04;32.26
6506;BME280;3286;49.858;8.768;2023-05-02T12:00:38;99775.41;;;22.96;31.36
6506;BME280;3286;49.858;8.768;2023-05-02T12:03:05;99778.66;;;22.79;30.60
6506;BME280;3286;49.858;8.768;2023-05-02T12:05:31;99779.78;;;23.73;29.55
6506;BME280;3286;49.858;8.768;2023-05-02T12:07:59;99768.44;;;24.08;29.20
6506;BME280;3286;49.858;8.768;2023-05-02T12:10:37;99777.53;;;23.19;29.24
6506;BME280;3286;49.858;8.768;2023-05-02T12:13:04;99781.94;;;23.13;28.95
6506;BME280;3286;49.858;8.768;2023-05-02T12:15:31;99776.91;;;23.49;29.28
6506;BME280;3286;49.858;8.768;2023-05-02T12:17:59;99767.94;;;24.49;27.28
6506;BME280;3286;49.858;8.768;2023-05-02T12:20:26;99769.88;;;24.41;27.30
6506;BME280;3286;49.858;8.768;2023-05-02T12:22:53;99773.88;;;21.50;30.85
6506;BME280;3286;49.858;8.768;2023-05-02T12:25:21;99772.94;;;22.62;31.15
6506;BME280;3286;49.858;8.768;2023-05-02T12:28:00;99788.22;;;22.16;30.31
6506;BME280;3286;49.858;8.768;2023-05-02T12:30:28;99779.94;;;22.70;29.33
6506;BME280;3286;49.858;8.768;2023-05-02T12:32:56;99776.59;;;23.57;29.67
6506;BME280;3286;49.858;8.768;2023-05-02T12:35:23;99774.00;;;22.61;28.13
6506;BME280;3286;49.858;8.768;2023-05-02T12:37:51;99771.09;;;22.04;30.44
6506;BME280;3286;49.858;8.768;2023-05-02T12:40:19;99771.16;;;21.83;31.36
6506;BME280;3286;49.858;8.768;2023-05-02T12:42:58;99774.28;;;20.99;31.46
6506;BME280;3286;49.858;8.768;2023-05-02T12:45:28;99772.84;;;21.24;31.68
6506;BME280;3286;49.858;8.768;2023-05-02T12:47:58;99769.25;;;22.04;29.94
6506;BME280;3286;49.858;8.768;2023-05-02T12:50:36;99767.41;;;22.89;29.05
6506;BME280;3286;49.858;8.768;2023-05-02T12:53:03;99772.16;;;23.70;28.56
6506;BME280;3286;49.858;8.768;2023-05-02T12:55:30;99767.59;;;23.89;28.43
6506;BME280;3286;49.858;8.768;2023-05-02T12:58:02;99762.13;;;24.14;28.81
6506;BME280;3286;49.858;8.768;2023-05-02T13:00:30;99765.97;;;23.63;29.32
6506;BME280;3286;49.858;8.768;2023-05-02T13:02:57;99768.63;;;22.93;28.95
6506;BME280;3286;49.858;8.768;2023-05-02T13:05:23;99780.28;;;21.35;30.46
6506;BME280;3286;49.858;8.768;2023-05-02T13:07:51;99780.88;;;21.84;31.33
6506;BME280;3286;49.858;8.768;2023-05-02T13:10:20;99776.97;;;21.13;31.54
6506;BME280;3286;49.858;8.768;2023-05-02T13:12:47;99789.06;;;20.75;32.49
6506;BME280;3286;49.858;8.768;2023-05-02T13:15:15;99779.97;;;20.63;35.06
6506;BME280;3286;49.858;8.768;2023-05-02T13:17:42;99781.72;;;19.65;33.51
6506;BME280;3286;49.858;8.768;2023-05-02T13:20:09;99779.81;;;20.84;32.79
6506;BME280;3286;49.858;8.768;2023-05-02T13:22:36;99773.66;;;21.11;32.23
6506;BME280;3286;49.858;8.768;2023-05-02T13:25:03;99780.75;;;20.01;32.90
6506;BME280;3286;49.858;8.768;2023-05-02T13:27:29;99772.84;;;21.71;31.06
6506;BME280;3286;49.858;8.768;2023-05-02T13:29:58;99781.16;;;22.28;30.82
6506;BME280;3286;49.858;8.768;2023-05-02T13:32:27;99777.38;;;21.84;29.13
6506;BME280;3286;49.858;8.768;2023-05-02T13:34:53;99776.81;;;22.73;29.07